sensor_id;sensor_type;location;lat;lon;timestamp;temperature;humidity
12309;DHT22;6217;48.150;17.142;2023-05-07T00:01:02;17.50;90.30
12309;DHT22;6217;48.150;17.142;2023-05-07T00:05:08;17.50;90.20
12309;DHT22;6217;48.150;17.142;2023-05-07T00:09:14;17.50;90.10
12309;DHT22;6217;48.150;17.142;2023-05-07T00:13:20;17.50;90.10
12309;DHT22;6217;48.150;17.142;2023-05-07T00:17:26;17.50;90.10
12309;DHT22;6217;48.150;17.142;2023-05-07T00:21:32;17.40;90.10
12309;DHT22;6217;48.150;17.142;2023-05-07T00:25:38;17.20;90.30
12309;DHT22;6217;48.150;17.142;2023-05-07T00:29:43;17.10;90.50
12309;DHT22;6217;48.150;17.142;2023-05-07T00:33:49;17.10;90.40
12309;DHT22;6217;48.150;17.142;2023-05-07T00:37:56;17.10;90.40
12309;DHT22;6217;48.150;17.142;2023-05-07T00:42:02;17.20;90.50
12309;DHT22;6217;48.150;17.142;2023-05-07T00:46:09;17.20;90.40
12309;DHT22;6217;48.150;17.142;2023-05-07T00:50:16;17.10;90.30
12309;DHT22;6217;48.150;17.142;2023-05-07T00:54:22;17.20;90.30
12309;DHT22;6217;48.150;17.142;2023-05-07T00:58:28;17.20;90.30
12309;DHT22;6217;48.150;17.142;2023-05-07T01:02:36;17.10;90.40
12309;DHT22;6217;48.150;17.142;2023-05-07T01:06:42;17.20;90.60
12309;DHT22;6217;48.150;17.142;2023-05-07T01:10:48;17.20;90.60
12309;DHT22;6217;48.150;17.142;2023-05-07T01:14:54;17.20;90.50
12309;DHT22;6217;48.150;17.142;2023-05-07T01:19:01;17.00;90.60
12309;DHT22;6217;48.150;17.142;2023-05-07T01:23:07;17.00;90.80
12309;DHT22;6217;48.150;17.142;2023-05-07T01:27:13;17.00;90.70
12309;DHT22;6217;48.150;17.142;2023-05-07T01:31:20;16.90;90.70
12309;DHT22;6217;48.150;17.142;2023-05-07T01:35:39;16.90;90.70
12309;DHT22;6217;48.150;17.142;2023-05-07T01:39:47;16.60;91.00
12309;DHT22;6217;48.150;17.142;2023-05-07T01:43:54;16.40;91.00
12309;DHT22;6217;48.150;17.142;2023-05-07T01:48:02;16.40;91.30
12309;DHT22;6217;48.150;17.142;2023-05-07T01:52:10;16.20;91.40
12309;DHT22;6217;48.150;17.142;2023-05-07T01:56:17;16.30;91.40
12309;DHT22;6217;48.150;17.142;2023-05-07T02:00:25;16.30;91.40
12309;DHT22;6217;48.150;17.142;2023-05-07T02:04:31;16.20;91.60
12309;DHT22;6217;48.150;17.142;2023-05-07T02:08:38;16.20;91.60
12309;DHT22;6217;48.150;17.142;2023-05-07T02:12:44;16.20;91.60
12309;DHT22;6217;48.150;17.142;2023-05-07T02:16:50;16.30;91.60
12309;DHT22;6217;48.150;17.142;2023-05-07T02:20:56;16.30;91.60
12309;DHT22;6217;48.150;17.142;2023-05-07T02:25:02;16.20;91.70
12309;DHT22;6217;48.150;17.142;2023-05-07T02:29:09;16.30;91.70
12309;DHT22;6217;48.150;17.142;2023-05-07T02:33:16;16.30;91.70
12309;DHT22;6217;48.150;17.142;2023-05-07T02:37:22;16.30;91.70
12309;DHT22;6217;48.150;17.142;2023-05-07T02:41:28;16.50;91.70
12309;DHT22;6217;48.150;17.142;2023-05-07T02:45:34;16.40;91.70
12309;DHT22;6217;48.150;17.142;2023-05-07T02:49:44;16.30;91.70
12309;DHT22;6217;48.150;17.142;2023-05-07T02:53:50;16.30;91.80
12309;DHT22;6217;48.150;17.142;2023-05-07T02:57:56;16.30;91.90
12309;DHT22;6217;48.150;17.142;2023-05-07T03:02:03;16.30;92.00
12309;DHT22;6217;48.150;17.142;2023-05-07T03:06:09;16.20;92.00
12309;DHT22;6217;48.150;17.142;2023-05-07T03:10:15;16.30;92.10
12309;DHT22;6217;48.150;17.142;2023-05-07T03:14:22;16.30;92.10
12309;DHT22;6217;48.150;17.142;2023-05-07T03:18:27;16.20;92.10
12309;DHT22;6217;48.150;17.142;2023-05-07T03:22:33;16.10;92.20
12309;DHT22;6217;48.150;17.142;2023-05-07T03:26:39;16.00;92.40
12309;DHT22;6217;48.150;17.142;2023-05-07T03:30:45;16.10;92.40
12309;DHT22;6217;48.150;17.142;2023-05-07T03:34:51;16.10;92.30
12309;DHT22;6217;48.150;17.142;2023-05-07T03:38:57;16.00;92.40
12309;DHT22;6217;48.150;17.142;2023-05-07T03:43:07;16.00;92.60
12309;DHT22;6217;48.150;17.142;2023-05-07T03:47:15;15.90;92.70
12309;DHT22;6217;48.150;17.142;2023-05-07T03:51:22;15.90;92.70
12309;DHT22;6217;48.150;17.142;2023-05-07T03:55:28;15.90;92.80
12309;DHT22;6217;48.150;17.142;2023-05-07T03:59:38;15.90;92.80
12309;DHT22;6217;48.150;17.142;2023-05-07T04:03:46;16.00;92.70
12309;DHT22;6217;48.150;17.142;2023-05-07T04:07:52;15.90;92.80
12309;DHT22;6217;48.150;17.142;2023-05-07T04:12:04;16.10;92.80
12309;DHT22;6217;48.150;17.142;2023-05-07T04:16:11;16.00;92.80
12309;DHT22;6217;48.150;17.142;2023-05-07T04:20:18;15.90;92.90
12309;DHT22;6217;48.150;17.142;2023-05-07T04:24:31;15.90;93.10
12309;DHT22;6217;48.150;17.142;2023-05-07T04:28:39;15.80;93.30
12309;DHT22;6217;48.150;17.142;2023-05-07T04:32:46;15.90;93.50
12309;DHT22;6217;48.150;17.142;2023-05-07T04:36:54;16.00;93.60
12309;DHT22;6217;48.150;17.142;2023-05-07T04:41:05;16.00;93.60
12309;DHT22;6217;48.150;17.142;2023-05-07T04:45:14;16.00;93.50
12309;DHT22;6217;48.150;17.142;2023-05-07T04:49:23;15.90;93.80
12309;DHT22;6217;48.150;17.142;2023-05-07T04:53:32;15.90;94.10
12309;DHT22;6217;48.150;17.142;2023-05-07T04:57:38;16.00;94.20
12309;DHT22;6217;48.150;17.142;2023-05-07T05:01:46;15.90;94.00
12309;DHT22;6217;48.150;17.142;2023-05-07T05:05:52;16.10;94.40
12309;DHT22;6217;48.150;17.142;2023-05-07T05:10:02;16.10;94.30
12309;DHT22;6217;48.150;17.142;2023-05-07T05:14:12;16.10;94.30
12309;DHT22;6217;48.150;17.142;2023-05-07T05:18:18;16.10;94.40
12309;DHT22;6217;48.150;17.142;2023-05-07T05:22:24;16.20;94.30
12309;DHT22;6217;48.150;17.142;2023-05-07T05:26:31;16.30;94.10
12309;DHT22;6217;48.150;17.142;2023-05-07T05:30:38;16.60;94.10
12309;DHT22;6217;48.150;17.142;2023-05-07T05:34:44;16.60;93.70
12309;DHT22;6217;48.150;17.142;2023-05-07T05:38:50;16.80;93.50
12309;DHT22;6217;48.150;17.142;2023-05-07T05:42:57;17.10;93.20
12309;DHT22;6217;48.150;17.142;2023-05-07T05:47:03;17.10;92.90
12309;DHT22;6217;48.150;17.142;2023-05-07T05:51:10;17.20;92.80
12309;DHT22;6217;48.150;17.142;2023-05-07T05:55:16;17.30;92.60
12309;DHT22;6217;48.150;17.142;2023-05-07T05:59:22;17.10;92.70
12309;DHT22;6217;48.150;17.142;2023-05-07T06:03:29;17.30;92.70
12309;DHT22;6217;48.150;17.142;2023-05-07T06:07:37;17.40;92.50
12309;DHT22;6217;48.150;17.142;2023-05-07T06:11:44;17.50;92.50
12309;DHT22;6217;48.150;17.142;2023-05-07T06:15:51;17.60;92.10
12309;DHT22;6217;48.150;17.142;2023-05-07T06:19:57;17.60;92.00
12309;DHT22;6217;48.150;17.142;2023-05-07T06:24:03;17.80;91.80
12309;DHT22;6217;48.150;17.142;2023-05-07T06:28:09;17.90;91.80
12309;DHT22;6217;48.150;17.142;2023-05-07T06:32:19;18.00;91.60
12309;DHT22;6217;48.150;17.142;2023-05-07T06:36:26;18.10;91.50
12309;DHT22;6217;48.150;17.142;2023-05-07T06:40:35;18.40;91.40
12309;DHT22;6217;48.150;17.142;2023-05-07T06:44:41;18.50;91.30
12309;DHT22;6217;48.150;17.142;2023-05-07T06:48:50;18.90;90.90
12309;DHT22;6217;48.150;17.142;2023-05-07T06:52:57;19.00;90.30
12309;DHT22;6217;48.150;17.142;2023-05-07T06:57:04;19.00;90.30
12309;DHT22;6217;48.150;17.142;2023-05-07T07:01:11;19.10;90.00
12309;DHT22;6217;48.150;17.142;2023-05-07T07:05:17;19.00;89.80
12309;DHT22;6217;48.150;17.142;2023-05-07T07:09:23;18.90;90.20
12309;DHT22;6217;48.150;17.142;2023-05-07T07:13:30;19.10;89.10
12309;DHT22;6217;48.150;17.142;2023-05-07T07:17:37;19.20;89.30
12309;DHT22;6217;48.150;17.142;2023-05-07T07:21:43;19.20;89.10
12309;DHT22;6217;48.150;17.142;2023-05-07T07:25:51;19.40;88.30
12309;DHT22;6217;48.150;17.142;2023-05-07T07:29:57;19.10;87.80
12309;DHT22;6217;48.150;17.142;2023-05-07T07:34:03;19.00;88.40
12309;DHT22;6217;48.150;17.142;2023-05-07T07:38:09;19.10;88.60
12309;DHT22;6217;48.150;17.142;2023-05-07T07:42:16;19.10;88.10
12309;DHT22;6217;48.150;17.142;2023-05-07T07:46:22;19.20;88.10
12309;DHT22;6217;48.150;17.142;2023-05-07T07:50:28;19.40;87.70
12309;DHT22;6217;48.150;17.142;2023-05-07T07:54:34;19.50;87.40
12309;DHT22;6217;48.150;17.142;2023-05-07T07:58:40;19.60;87.20
12309;DHT22;6217;48.150;17.142;2023-05-07T08:02:46;19.70;86.80
12309;DHT22;6217;48.150;17.142;2023-05-07T08:07:00;19.90;86.30
12309;DHT22;6217;48.150;17.142;2023-05-07T08:11:06;19.90;85.80
12309;DHT22;6217;48.150;17.142;2023-05-07T08:15:15;20.10;85.20
12309;DHT22;6217;48.150;17.142;2023-05-07T08:19:21;20.10;85.20
12309;DHT22;6217;48.150;17.142;2023-05-07T08:23:28;20.30;85.10
12309;DHT22;6217;48.150;17.142;2023-05-07T08:27:35;20.40;84.70
12309;DHT22;6217;48.150;17.142;2023-05-07T08:31:41;20.60;84.10
12309;DHT22;6217;48.150;17.142;2023-05-07T08:35:47;20.50;84.00
12309;DHT22;6217;48.150;17.142;2023-05-07T08:39:54;20.60;83.70
12309;DHT22;6217;48.150;17.142;2023-05-07T08:44:06;20.50;83.50
12309;DHT22;6217;48.150;17.142;2023-05-07T08:48:17;20.60;83.20
12309;DHT22;6217;48.150;17.142;2023-05-07T08:52:33;20.70;83.10
12309;DHT22;6217;48.150;17.142;2023-05-07T08:56:40;20.90;82.70
12309;DHT22;6217;48.150;17.142;2023-05-07T09:00:47;21.00;81.40
12309;DHT22;6217;48.150;17.142;2023-05-07T09:04:53;21.10;80.80
12309;DHT22;6217;48.150;17.142;2023-05-07T09:09:00;21.00;79.80
12309;DHT22;6217;48.150;17.142;2023-05-07T09:13:09;21.10;79.50
12309;DHT22;6217;48.150;17.142;2023-05-07T09:17:18;21.00;79.20
12309;DHT22;6217;48.150;17.142;2023-05-07T09:21:24;21.20;78.20
12309;DHT22;6217;48.150;17.142;2023-05-07T09:25:35;21.30;77.80
12309;DHT22;6217;48.150;17.142;2023-05-07T09:29:48;21.40;77.80
12309;DHT22;6217;48.150;17.142;2023-05-07T09:33:55;21.30;77.20
12309;DHT22;6217;48.150;17.142;2023-05-07T09:38:03;21.20;77.10
12309;DHT22;6217;48.150;17.142;2023-05-07T09:42:11;21.40;76.90
12309;DHT22;6217;48.150;17.142;2023-05-07T09:46:25;21.70;76.70
12309;DHT22;6217;48.150;17.142;2023-05-07T09:50:36;21.70;75.40
12309;DHT22;6217;48.150;17.142;2023-05-07T09:54:50;21.80;74.40
12309;DHT22;6217;48.150;17.142;2023-05-07T09:59:03;21.90;73.80
12309;DHT22;6217;48.150;17.142;2023-05-07T10:03:12;22.00;72.80
12309;DHT22;6217;48.150;17.142;2023-05-07T10:07:36;22.20;71.90
12309;DHT22;6217;48.150;17.142;2023-05-07T10:11:49;22.30;71.40
12309;DHT22;6217;48.150;17.142;2023-05-07T10:15:56;22.30;70.90
12309;DHT22;6217;48.150;17.142;2023-05-07T10:20:06;22.30;70.20
12309;DHT22;6217;48.150;17.142;2023-05-07T10:24:19;22.20;70.40
12309;DHT22;6217;48.150;17.142;2023-05-07T10:28:29;22.10;70.10
12309;DHT22;6217;48.150;17.142;2023-05-07T10:32:49;22.30;70.30
12309;DHT22;6217;48.150;17.142;2023-05-07T10:37:10;22.30;70.30
12309;DHT22;6217;48.150;17.142;2023-05-07T10:41:17;22.30;69.40
12309;DHT22;6217;48.150;17.142;2023-05-07T10:45:25;22.40;69.10
12309;DHT22;6217;48.150;17.142;2023-05-07T10:49:33;22.40;68.80
12309;DHT22;6217;48.150;17.142;2023-05-07T10:53:43;22.40;68.10
12309;DHT22;6217;48.150;17.142;2023-05-07T10:58:24;22.50;67.90
12309;DHT22;6217;48.150;17.142;2023-05-07T11:07:23;22.30;66.60
12309;DHT22;6217;48.150;17.142;2023-05-07T11:16:27;22.40;66.20
12309;DHT22;6217;48.150;17.142;2023-05-07T11:20:53;22.50;65.90
12309;DHT22;6217;48.150;17.142;2023-05-07T11:25:22;22.60;65.40
12309;DHT22;6217;48.150;17.142;2023-05-07T11:29:35;22.70;64.90
12309;DHT22;6217;48.150;17.142;2023-05-07T11:33:46;22.70;64.40
12309;DHT22;6217;48.150;17.142;2023-05-07T11:38:00;22.80;64.40
12309;DHT22;6217;48.150;17.142;2023-05-07T11:42:07;22.70;63.60
12309;DHT22;6217;48.150;17.142;2023-05-07T11:46:13;22.50;62.30
12309;DHT22;6217;48.150;17.142;2023-05-07T11:50:19;22.30;61.30
12309;DHT22;6217;48.150;17.142;2023-05-07T11:54:25;22.20;61.20
12309;DHT22;6217;48.150;17.142;2023-05-07T11:58:31;22.20;61.70
12309;DHT22;6217;48.150;17.142;2023-05-07T12:02:37;22.10;59.90
12309;DHT22;6217;48.150;17.142;2023-05-07T12:06:44;22.00;60.20
12309;DHT22;6217;48.150;17.142;2023-05-07T12:10:50;22.10;60.20
12309;DHT22;6217;48.150;17.142;2023-05-07T12:14:57;22.20;60.00
12309;DHT22;6217;48.150;17.142;2023-05-07T12:19:02;22.20;59.60
12309;DHT22;6217;48.150;17.142;2023-05-07T12:23:08;22.20;59.30
12309;DHT22;6217;48.150;17.142;2023-05-07T12:27:15;22.40;59.60
12309;DHT22;6217;48.150;17.142;2023-05-07T12:31:21;22.40;58.90
12309;DHT22;6217;48.150;17.142;2023-05-07T12:35:32;22.20;58.70
12309;DHT22;6217;48.150;17.142;2023-05-07T12:39:47;22.10;58.20
12309;DHT22;6217;48.150;17.142;2023-05-07T12:43:56;22.10;58.50
12309;DHT22;6217;48.150;17.142;2023-05-07T12:48:03;22.10;58.50
12309;DHT22;6217;48.150;17.142;2023-05-07T12:52:08;22.10;58.70
12309;DHT22;6217;48.150;17.142;2023-05-07T12:56:16;22.20;58.30
12309;DHT22;6217;48.150;17.142;2023-05-07T13:00:36;22.00;57.90
12309;DHT22;6217;48.150;17.142;2023-05-07T13:04:43;22.00;57.20
12309;DHT22;6217;48.150;17.142;2023-05-07T13:08:48;21.80;57.20
12309;DHT22;6217;48.150;17.142;2023-05-07T13:12:54;21.90;57.50
12309;DHT22;6217;48.150;17.142;2023-05-07T13:17:00;21.70;56.90
12309;DHT22;6217;48.150;17.142;2023-05-07T13:21:06;21.70;57.30
12309;DHT22;6217;48.150;17.142;2023-05-07T13:25:12;21.70;57.30
12309;DHT22;6217;48.150;17.142;2023-05-07T13:29:18;21.70;56.80
12309;DHT22;6217;48.150;17.142;2023-05-07T13:33:24;21.60;56.90
12309;DHT22;6217;48.150;17.142;2023-05-07T13:37:30;21.60;56.70
12309;DHT22;6217;48.150;17.142;2023-05-07T13:41:36;21.50;56.90
12309;DHT22;6217;48.150;17.142;2023-05-07T13:45:42;21.40;56.80
12309;DHT22;6217;48.150;17.142;2023-05-07T13:49:47;21.20;56.70
12309;DHT22;6217;48.150;17.142;2023-05-07T13:53:56;21.20;56.80
12309;DHT22;6217;48.150;17.142;2023-05-07T13:58:04;21.30;56.80
12309;DHT22;6217;48.150;17.142;2023-05-07T14:02:09;21.30;56.50
12309;DHT22;6217;48.150;17.142;2023-05-07T14:06:15;21.30;56.60
12309;DHT22;6217;48.150;17.142;2023-05-07T14:10:21;21.30;56.30
12309;DHT22;6217;48.150;17.142;2023-05-07T14:14:27;21.30;56.40
12309;DHT22;6217;48.150;17.142;2023-05-07T14:18:33;21.20;55.80
12309;DHT22;6217;48.150;17.142;2023-05-07T14:22:40;21.10;56.00
12309;DHT22;6217;48.150;17.142;2023-05-07T14:26:46;21.00;56.00
12309;DHT22;6217;48.150;17.142;2023-05-07T14:30:52;21.00;55.90
12309;DHT22;6217;48.150;17.142;2023-05-07T14:34:58;21.00;56.70
12309;DHT22;6217;48.150;17.142;2023-05-07T14:39:04;21.10;56.30
12309;DHT22;6217;48.150;17.142;2023-05-07T14:43:10;21.10;56.10
12309;DHT22;6217;48.150;17.142;2023-05-07T14:47:16;21.10;56.10
12309;DHT22;6217;48.150;17.142;2023-05-07T14:51:22;20.90;55.60
12309;DHT22;6217;48.150;17.142;2023-05-07T14:55:28;20.80;55.70
12309;DHT22;6217;48.150;17.142;2023-05-07T14:59:34;20.80;55.50
12309;DHT22;6217;48.150;17.142;2023-05-07T15:03:40;20.80;55.40
12309;DHT22;6217;48.150;17.142;2023-05-07T15:07:46;20.70;55.30
12309;DHT22;6217;48.150;17.142;2023-05-07T15:11:52;20.70;55.30
12309;DHT22;6217;48.150;17.142;2023-05-07T15:15:58;20.50;55.40
12309;DHT22;6217;48.150;17.142;2023-05-07T15:20:04;20.50;55.70
12309;DHT22;6217;48.150;17.142;2023-05-07T15:24:11;20.60;56.00
12309;DHT22;6217;48.150;17.142;2023-05-07T15:28:17;20.50;55.90
12309;DHT22;6217;48.150;17.142;2023-05-07T15:32:23;20.50;56.10
12309;DHT22;6217;48.150;17.142;2023-05-07T15:36:28;20.40;55.80
12309;DHT22;6217;48.150;17.142;2023-05-07T15:40:35;20.30;55.80
12309;DHT22;6217;48.150;17.142;2023-05-07T15:44:43;20.20;55.90
12309;DHT22;6217;48.150;17.142;2023-05-07T15:48:49;20.20;55.90
12309;DHT22;6217;48.150;17.142;2023-05-07T15:52:55;20.10;55.80
12309;DHT22;6217;48.150;17.142;2023-05-07T15:57:01;20.00;55.80
12309;DHT22;6217;48.150;17.142;2023-05-07T16:01:08;20.00;56.00
12309;DHT22;6217;48.150;17.142;2023-05-07T16:05:14;19.90;56.00
12309;DHT22;6217;48.150;17.142;2023-05-07T16:09:20;19.80;56.10
12309;DHT22;6217;48.150;17.142;2023-05-07T16:13:26;19.80;56.10
12309;DHT22;6217;48.150;17.142;2023-05-07T16:17:32;19.70;56.40
12309;DHT22;6217;48.150;17.142;2023-05-07T16:21:39;19.70;57.20
12309;DHT22;6217;48.150;17.142;2023-05-07T16:25:45;19.50;56.30
12309;DHT22;6217;48.150;17.142;2023-05-07T16:29:51;19.30;56.30
12309;DHT22;6217;48.150;17.142;2023-05-07T16:33:57;19.10;56.50
12309;DHT22;6217;48.150;17.142;2023-05-07T16:38:04;19.00;56.70
12309;DHT22;6217;48.150;17.142;2023-05-07T16:42:14;18.70;56.60
12309;DHT22;6217;48.150;17.142;2023-05-07T16:46:20;18.60;56.70
12309;DHT22;6217;48.150;17.142;2023-05-07T16:50:26;18.50;57.10
12309;DHT22;6217;48.150;17.142;2023-05-07T16:54:31;18.50;57.20
12309;DHT22;6217;48.150;17.142;2023-05-07T16:58:37;18.30;57.20
12309;DHT22;6217;48.150;17.142;2023-05-07T17:02:43;18.30;57.20
12309;DHT22;6217;48.150;17.142;2023-05-07T17:06:51;18.00;57.20
12309;DHT22;6217;48.150;17.142;2023-05-07T17:10:57;17.90;57.40
12309;DHT22;6217;48.150;17.142;2023-05-07T17:15:03;17.80;57.50
12309;DHT22;6217;48.150;17.142;2023-05-07T17:19:09;17.80;57.60
12309;DHT22;6217;48.150;17.142;2023-05-07T17:23:15;17.70;57.70
12309;DHT22;6217;48.150;17.142;2023-05-07T17:27:21;17.60;57.70
12309;DHT22;6217;48.150;17.142;2023-05-07T17:31:27;17.70;57.60
12309;DHT22;6217;48.150;17.142;2023-05-07T17:35:33;17.60;57.70
12309;DHT22;6217;48.150;17.142;2023-05-07T17:39:38;17.40;57.80
12309;DHT22;6217;48.150;17.142;2023-05-07T17:43:44;17.20;57.90
12309;DHT22;6217;48.150;17.142;2023-05-07T17:47:50;17.00;58.10
12309;DHT22;6217;48.150;17.142;2023-05-07T17:51:56;16.90;58.40
12309;DHT22;6217;48.150;17.142;2023-05-07T17:56:02;16.80;58.60
12309;DHT22;6217;48.150;17.142;2023-05-07T18:00:08;16.60;58.70
12309;DHT22;6217;48.150;17.142;2023-05-07T18:04:15;16.40;58.80
12309;DHT22;6217;48.150;17.142;2023-05-07T18:08:21;16.30;59.00
12309;DHT22;6217;48.150;17.142;2023-05-07T18:12:27;16.10;59.10
12309;DHT22;6217;48.150;17.142;2023-05-07T18:16:33;16.00;59.50
12309;DHT22;6217;48.150;17.142;2023-05-07T18:20:39;15.70;59.60
12309;DHT22;6217;48.150;17.142;2023-05-07T18:24:45;15.60;60.00
12309;DHT22;6217;48.150;17.142;2023-05-07T18:28:51;15.30;60.30
12309;DHT22;6217;48.150;17.142;2023-05-07T18:32:57;15.20;60.50
12309;DHT22;6217;48.150;17.142;2023-05-07T18:37:02;15.10;60.70
12309;DHT22;6217;48.150;17.142;2023-05-07T18:41:08;15.10;61.10
12309;DHT22;6217;48.150;17.142;2023-05-07T18:45:14;14.90;61.20
12309;DHT22;6217;48.150;17.142;2023-05-07T18:49:20;15.00;61.30
12309;DHT22;6217;48.150;17.142;2023-05-07T18:53:26;15.00;61.50
12309;DHT22;6217;48.150;17.142;2023-05-07T18:57:33;15.10;61.60
12309;DHT22;6217;48.150;17.142;2023-05-07T19:01:39;14.90;61.70
12309;DHT22;6217;48.150;17.142;2023-05-07T19:05:45;14.90;61.90
12309;DHT22;6217;48.150;17.142;2023-05-07T19:09:51;14.80;62.20
12309;DHT22;6217;48.150;17.142;2023-05-07T19:13:57;14.70;62.30
12309;DHT22;6217;48.150;17.142;2023-05-07T19:18:03;14.70;62.30
12309;DHT22;6217;48.150;17.142;2023-05-07T19:22:09;14.60;62.60
12309;DHT22;6217;48.150;17.142;2023-05-07T19:26:15;14.60;62.80
12309;DHT22;6217;48.150;17.142;2023-05-07T19:30:21;14.50;63.70
12309;DHT22;6217;48.150;17.142;2023-05-07T19:34:27;14.40;63.10
12309;DHT22;6217;48.150;17.142;2023-05-07T19:38:35;14.30;63.40
12309;DHT22;6217;48.150;17.142;2023-05-07T19:42:41;14.20;63.50
12309;DHT22;6217;48.150;17.142;2023-05-07T19:46:47;14.20;63.70
12309;DHT22;6217;48.150;17.142;2023-05-07T19:50:53;14.10;63.90
12309;DHT22;6217;48.150;17.142;2023-05-07T19:54:58;14.00;64.10
12309;DHT22;6217;48.150;17.142;2023-05-07T19:59:04;14.00;64.30
12309;DHT22;6217;48.150;17.142;2023-05-07T20:03:10;14.00;64.20
12309;DHT22;6217;48.150;17.142;2023-05-07T20:07:22;14.00;64.20
12309;DHT22;6217;48.150;17.142;2023-05-07T20:11:28;13.90;64.50
12309;DHT22;6217;48.150;17.142;2023-05-07T20:15:37;13.80;64.70
12309;DHT22;6217;48.150;17.142;2023-05-07T20:19:43;13.80;64.90
12309;DHT22;6217;48.150;17.142;2023-05-07T20:23:49;13.80;64.90
12309;DHT22;6217;48.150;17.142;2023-05-07T20:27:55;13.70;65.00
12309;DHT22;6217;48.150;17.142;2023-05-07T20:32:01;13.80;65.20
12309;DHT22;6217;48.150;17.142;2023-05-07T20:36:08;13.70;65.40
12309;DHT22;6217;48.150;17.142;2023-05-07T20:40:13;13.60;65.30
12309;DHT22;6217;48.150;17.142;2023-05-07T20:44:19;13.60;65.50
12309;DHT22;6217;48.150;17.142;2023-05-07T20:48:26;13.70;65.60
12309;DHT22;6217;48.150;17.142;2023-05-07T20:52:35;13.50;65.80
12309;DHT22;6217;48.150;17.142;2023-05-07T20:56:41;13.50;65.80
12309;DHT22;6217;48.150;17.142;2023-05-07T21:00:47;13.50;65.90
12309;DHT22;6217;48.150;17.142;2023-05-07T21:04:52;13.40;65.90
12309;DHT22;6217;48.150;17.142;2023-05-07T21:08:58;13.50;66.00
12309;DHT22;6217;48.150;17.142;2023-05-07T21:13:04;13.30;66.00
12309;DHT22;6217;48.150;17.142;2023-05-07T21:17:10;13.40;65.80
12309;DHT22;6217;48.150;17.142;2023-05-07T21:21:16;13.40;65.80
12309;DHT22;6217;48.150;17.142;2023-05-07T21:25:22;13.30;66.00
12309;DHT22;6217;48.150;17.142;2023-05-07T21:29:29;13.20;66.30
12309;DHT22;6217;48.150;17.142;2023-05-07T21:33:35;13.20;66.20
12309;DHT22;6217;48.150;17.142;2023-05-07T21:37:41;13.10;66.30
12309;DHT22;6217;48.150;17.142;2023-05-07T21:41:47;13.10;66.30
12309;DHT22;6217;48.150;17.142;2023-05-07T21:45:53;13.00;66.40
12309;DHT22;6217;48.150;17.142;2023-05-07T21:49:59;12.90;66.60
12309;DHT22;6217;48.150;17.142;2023-05-07T21:54:05;12.80;66.50
12309;DHT22;6217;48.150;17.142;2023-05-07T21:58:12;12.90;66.60
12309;DHT22;6217;48.150;17.142;2023-05-07T22:02:18;12.80;66.70
12309;DHT22;6217;48.150;17.142;2023-05-07T22:06:24;12.90;66.60
12309;DHT22;6217;48.150;17.142;2023-05-07T22:10:30;12.80;66.70
12309;DHT22;6217;48.150;17.142;2023-05-07T22:14:35;12.80;66.90
12309;DHT22;6217;48.150;17.142;2023-05-07T22:18:41;12.70;66.80
12309;DHT22;6217;48.150;17.142;2023-05-07T22:22:50;12.70;66.70
12309;DHT22;6217;48.150;17.142;2023-05-07T22:27:00;12.70;66.90
12309;DHT22;6217;48.150;17.142;2023-05-07T22:31:06;12.60;67.10
12309;DHT22;6217;48.150;17.142;2023-05-07T22:35:12;12.60;67.00
12309;DHT22;6217;48.150;17.142;2023-05-07T22:39:18;12.60;67.10
12309;DHT22;6217;48.150;17.142;2023-05-07T22:43:24;12.60;66.90
12309;DHT22;6217;48.150;17.142;2023-05-07T22:47:30;12.50;67.00
12309;DHT22;6217;48.150;17.142;2023-05-07T22:51:36;12.50;67.10
12309;DHT22;6217;48.150;17.142;2023-05-07T22:55:42;12.40;67.30
12309;DHT22;6217;48.150;17.142;2023-05-07T22:59:53;12.50;67.30
12309;DHT22;6217;48.150;17.142;2023-05-07T23:03:59;12.30;67.50
12309;DHT22;6217;48.150;17.142;2023-05-07T23:08:05;12.30;67.40
12309;DHT22;6217;48.150;17.142;2023-05-07T23:12:11;12.20;67.40
12309;DHT22;6217;48.150;17.142;2023-05-07T23:16:17;12.10;67.60
12309;DHT22;6217;48.150;17.142;2023-05-07T23:20:23;12.20;67.60
12309;DHT22;6217;48.150;17.142;2023-05-07T23:24:29;12.10;67.40
12309;DHT22;6217;48.150;17.142;2023-05-07T23:28:34;12.10;67.40
12309;DHT22;6217;48.150;17.142;2023-05-07T23:32:40;12.10;67.60
12309;DHT22;6217;48.150;17.142;2023-05-07T23:36:46;12.00;67.50
12309;DHT22;6217;48.150;17.142;2023-05-07T23:40:53;12.00;68.30
12309;DHT22;6217;48.150;17.142;2023-05-07T23:44:59;12.00;67.60
12309;DHT22;6217;48.150;17.142;2023-05-07T23:49:05;12.00;67.70
12309;DHT22;6217;48.150;17.142;2023-05-07T23:53:10;11.90;67.90
12309;DHT22;6217;48.150;17.142;2023-05-07T23:57:16;11.90;68.00
